Time;durP1;ratioP1;P1;durP2;ratioP2;P2;SDS_P1;SDS_P2;PMS_P1;PMS_P2;Temp;Humidity;BMP_temperature;BMP_pressure;BME280_temperature;BME280_humidity;BME280_pressure;Samples;Min_cycle;Max_cycle;Signal;HPM_P1;HPM_P2
2022/07/29 00:01:35;;;;;;;7.10;5.03;;;;;;;-145.87;100.00;54973.53;2049855;29;20047;-37
2022/07/29 00:03:35;;;;;;;7.55;5.43;;;;;;;-145.87;100.00;54973.53;2041094;29;20048;-40
2022/07/29 00:05:34;;;;;;;10.63;5.97;;;;;;;-145.87;100.00;54973.53;2049062;29;20055;-41
2022/07/29 00:07:34;;;;;;;7.70;5.97;;;;;;;-145.87;100.00;54973.53;2041356;29;20036;-39
2022/07/29 00:09:34;;;;;;;9.18;6.25;;;;;;;-145.87;100.00;54973.53;2049769;29;20054;-40
2022/07/29 00:11:33;;;;;;;7.22;5.93;;;;;;;-145.87;100.00;54973.53;2041082;29;20525;-37
2022/07/29 00:13:33;;;;;;;7.72;6.13;;;;;;;-145.87;100.00;54973.53;2041664;29;20430;-39
2022/07/29 00:15:33;;;;;;;7.38;5.88;;;;;;;-145.87;100.00;54973.53;2049358;29;20055;-42
2022/07/29 00:17:33;;;;;;;8.45;6.53;;;;;;;-145.87;100.00;54973.53;2033211;29;20044;-38
2022/07/29 00:19:34;;;;;;;6.70;5.43;;;;;;;-145.87;100.00;54973.53;2040945;29;20445;-39
2022/07/29 00:21:33;;;;;;;8.82;6.63;;;;;;;-145.87;100.00;54973.53;2049698;28;20463;-41
2022/07/29 00:23:35;;;;;;;9.18;8.18;;;;;;;-145.87;100.00;54973.53;2049989;29;20050;-41
2022/07/29 00:25:35;;;;;;;9.30;7.03;;;;;;;-145.87;100.00;54973.53;2033176;29;20445;-40
2022/07/29 00:27:35;;;;;;;10.38;8.45;;;;;;;-145.87;100.00;54973.53;2041174;29;20493;-38
2022/07/29 00:29:35;;;;;;;11.98;7.53;;;;;;;-145.87;100.00;54973.53;2048928;28;20066;-37
2022/07/29 00:31:34;;;;;;;9.48;6.95;;;;;;;-145.87;100.00;54973.53;2041272;29;20056;-39
2022/07/29 00:33:34;;;;;;;9.77;7.70;;;;;;;-145.87;100.00;54973.53;2033654;29;20055;-37
2022/07/29 00:37:45;;;;;;;9.77;8.32;;;;;;;-145.87;100.00;54973.53;2035009;29;20418;-38
2022/07/29 00:39:46;;;;;;;13.40;8.45;;;;;;;-145.87;100.00;54973.53;2040440;29;20559;-38
2022/07/29 00:41:45;;;;;;;8.38;6.82;;;;;;;-145.87;100.00;54973.53;2033422;29;20048;-38
2022/07/29 00:43:46;;;;;;;9.35;7.05;;;;;;;-145.87;100.00;54973.53;2048790;29;20046;-39
2022/07/29 00:45:46;;;;;;;8.13;6.63;;;;;;;-145.87;100.00;54973.53;2041565;29;20056;-42
2022/07/29 00:47:46;;;;;;;8.70;7.00;;;;;;;-145.87;100.00;54973.53;2041063;29;20043;-39
2022/07/29 00:49:45;;;;;;;11.13;7.75;;;;;;;-145.87;100.00;54973.53;2025281;29;20415;-39
2022/07/29 00:51:45;;;;;;;8.00;7.20;;;;;;;-145.87;100.00;54973.53;2032758;29;20063;-39
2022/07/29 00:53:46;;;;;;;12.50;8.40;;;;;;;-145.87;100.00;54973.53;2040898;29;20063;-39
2022/07/29 00:55:46;;;;;;;10.95;8.40;;;;;;;-145.87;100.00;54973.53;2017827;29;20045;-39
2022/07/29 00:57:46;;;;;;;14.55;10.43;;;;;;;-145.87;100.00;54973.53;2024855;29;20072;-38
2022/07/29 00:59:45;;;;;;;12.02;9.98;;;;;;;-145.87;100.00;54973.53;2040878;29;20067;-40
2022/07/29 01:01:45;;;;;;;14.85;11.25;;;;;;;-145.87;100.00;54973.53;2025559;29;20048;-38
2022/07/29 01:03:45;;;;;;;13.73;11.95;;;;;;;-145.87;100.00;54973.53;2040710;29;20055;-41
2022/07/29 01:05:45;;;;;;;15.13;10.55;;;;;;;-145.87;100.00;54973.53;2025441;29;20061;-38
2022/07/29 01:07:45;;;;;;;13.55;9.77;;;;;;;-145.87;100.00;54973.53;2040638;29;20054;-39
2022/07/29 01:09:45;;;;;;;13.07;10.52;;;;;;;-145.87;100.00;54973.53;2033204;29;20064;-38
2022/07/29 01:11:45;;;;;;;15.23;11.95;;;;;;;-145.87;100.00;54973.53;2033207;29;20044;-38
2022/07/29 01:13:45;;;;;;;12.82;10.27;;;;;;;-145.87;100.00;54973.53;2033331;29;20055;-39
2022/07/29 01:15:47;;;;;;;12.88;9.70;;;;;;;-145.87;100.00;54973.53;2040812;29;20047;-40
2022/07/29 01:17:50;;;;;;;13.13;10.82;;;;;;;-145.87;100.00;54973.53;2033054;29;20422;-39
2022/07/29 01:19:53;;;;;;;15.60;10.73;;;;;;;-145.87;100.00;54973.53;2040535;29;20062;-39
2022/07/29 01:21:57;;;;;;;14.00;10.60;;;;;;;-145.87;100.00;54973.53;2041204;29;20070;-40
2022/07/29 01:24:08;;;;;;;16.33;11.55;;;;;;;-145.87;100.00;54973.53;2032829;29;20040;-40
2022/07/29 01:26:30;;;;;;;16.85;12.68;;;;;;;-145.87;100.00;54973.53;2040543;29;20052;-39
2022/07/29 01:29:00;;;;;;;14.68;11.95;;;;;;;-145.87;100.00;54973.53;2026829;29;20048;-39
2022/07/29 01:31:00;;;;;;;12.93;10.88;;;;;;;-145.87;100.00;54973.53;2040900;29;20485;-38
2022/07/29 01:33:01;;;;;;;16.90;11.50;;;;;;;-145.87;100.00;54973.53;2025369;29;20048;-38
2022/07/29 01:35:03;;;;;;;19.00;12.38;;;;;;;-145.87;100.00;54973.53;2033341;29;20056;-39
2022/07/29 01:37:08;;;;;;;16.52;11.43;;;;;;;-145.87;100.00;54973.53;2033214;29;20052;-41
2022/07/29 01:39:15;;;;;;;18.88;10.98;;;;;;;-145.87;100.00;54973.53;2025033;29;20048;-38
2022/07/29 01:41:18;;;;;;;13.80;10.35;;;;;;;-145.87;100.00;54973.53;2040592;29;20498;-39
2022/07/29 01:43:23;;;;;;;18.02;12.57;;;;;;;-145.87;100.00;54973.53;2043642;29;20046;-41
2022/07/29 01:45:33;;;;;;;15.75;11.73;;;;;;;-145.87;100.00;54973.53;2040179;29;20055;-42
2022/07/29 01:47:37;;;;;;;18.73;12.18;;;;;;;-145.87;100.00;54973.53;2032334;29;20051;-39
2022/07/29 01:49:54;;;;;;;13.15;11.38;;;;;;;-145.87;100.00;54973.53;2032395;29;20040;-40
2022/07/29 01:52:00;;;;;;;16.15;11.75;;;;;;;-145.87;100.00;54973.53;2040304;29;20529;-38
2022/07/29 01:54:07;;;;;;;15.60;11.30;;;;;;;-145.87;100.00;54973.53;2048460;29;20043;-39
2022/07/29 01:56:08;;;;;;;13.48;10.70;;;;;;;-145.87;100.00;54973.53;2040475;29;20062;-39
2022/07/29 01:58:09;;;;;;;13.10;11.23;;;;;;;-145.87;100.00;54973.53;2047735;29;20568;-40
2022/07/29 02:00:09;;;;;;;14.90;10.95;;;;;;;-145.87;100.00;54973.53;2040882;29;20063;-37
2022/07/29 02:02:13;;;;;;;15.93;12.05;;;;;;;-145.87;100.00;54973.53;2047827;29;20047;-39
2022/07/29 02:04:13;;;;;;;17.80;12.15;;;;;;;-145.87;100.00;54973.53;2040465;29;20043;-39
2022/07/29 02:06:15;;;;;;;18.77;12.82;;;;;;;-145.87;100.00;54973.53;2024822;29;20048;-39
2022/07/29 02:08:19;;;;;;;18.90;14.40;;;;;;;-145.87;100.00;54973.53;2040499;29;20056;-40
2022/07/29 02:10:21;;;;;;;19.10;13.85;;;;;;;-145.87;100.00;54973.53;2040320;29;20051;-41
2022/07/29 02:12:21;;;;;;;22.35;15.95;;;;;;;-145.87;100.00;54973.53;2032796;29;20422;-39
2022/07/29 02:14:21;;;;;;;16.40;13.82;;;;;;;-145.87;100.00;54973.53;2040417;29;20413;-39
2022/07/29 02:16:22;;;;;;;21.58;13.63;;;;;;;-145.87;100.00;54973.53;2040449;29;20058;-41
2022/07/29 02:18:23;;;;;;;13.20;11.25;;;;;;;-145.87;100.00;54973.53;2040475;29;20044;-38
2022/07/29 02:20:23;;;;;;;16.40;11.48;;;;;;;-145.87;100.00;54973.53;2048638;29;20413;-41
2022/07/29 02:22:23;;;;;;;16.58;12.77;;;;;;;-145.87;100.00;54973.53;2040968;29;20043;-40
2022/07/29 02:24:23;;;;;;;17.98;13.35;;;;;;;-145.87;100.00;54973.53;2025208;29;20438;-41
2022/07/29 02:26:23;;;;;;;20.50;13.63;;;;;;;-145.87;100.00;54973.53;2048013;29;20051;-41
2022/07/29 02:28:24;;;;;;;18.55;13.27;;;;;;;-145.87;100.00;54973.53;2040591;29;20059;-38
2022/07/29 02:30:24;;;;;;;25.33;14.57;;;;;;;-145.87;100.00;54973.53;2032752;29;20441;-40
2022/07/29 02:32:27;;;;;;;18.73;13.80;;;;;;;-145.87;100.00;54973.53;2040361;29;20136;-39
2022/07/29 02:34:26;;;;;;;28.05;15.10;;;;;;;-145.87;100.00;54973.53;2040577;29;20059;-38
2022/07/29 02:36:26;;;;;;;20.15;11.43;;;;;;;-145.87;100.00;54973.53;2040422;29;20529;-40
2022/07/29 02:40:44;;;;;;;14.85;10.27;;;;;;;-145.87;100.00;54973.53;2047751;29;20059;-38
2022/07/29 02:42:46;;;;;;;16.63;10.57;;;;;;;-145.87;100.00;54973.53;2031916;29;20048;-39
2022/07/29 02:44:46;;;;;;;11.55;9.57;;;;;;;-145.87;100.00;54973.53;2032552;29;20048;-41
2022/07/29 02:46:48;;;;;;;12.25;9.35;;;;;;;-145.87;100.00;54973.53;2040708;29;20048;-40
2022/07/29 02:48:49;;;;;;;9.63;7.70;;;;;;;-145.87;100.00;54973.53;2032608;29;20530;-38
2022/07/29 02:50:53;;;;;;;11.27;9.13;;;;;;;-145.87;100.00;54973.53;2030178;29;20051;-40
2022/07/29 02:52:54;;;;;;;11.88;8.60;;;;;;;-145.87;100.00;54973.53;2039737;29;20061;-44
2022/07/29 02:54:55;;;;;;;11.88;7.85;;;;;;;-145.87;100.00;54973.53;2047856;29;20128;-41
2022/07/29 02:56:55;;;;;;;12.70;7.35;;;;;;;-145.87;100.00;54973.53;2039976;29;20058;-41
2022/07/29 02:59:07;;;;;;;12.93;8.45;;;;;;;-145.87;100.00;54973.53;2040369;29;20047;-40
2022/07/29 03:01:23;;;;;;;13.75;9.60;;;;;;;-145.87;100.00;54973.53;2039206;29;20063;-40
2022/07/29 03:03:25;;;;;;;14.25;9.18;;;;;;;-145.87;100.00;54973.53;2048498;29;20078;-40
2022/07/29 03:05:24;;;;;;;13.45;9.52;;;;;;;-145.87;100.00;54973.53;2024646;29;20390;-40
2022/07/29 03:07:24;;;;;;;14.43;10.07;;;;;;;-145.87;100.00;54973.53;2024637;29;20060;-37
2022/07/29 03:09:24;;;;;;;12.85;9.13;;;;;;;-145.87;100.00;54973.53;2032073;29;20059;-41
2022/07/29 03:11:23;;;;;;;13.60;8.73;;;;;;;-145.87;100.00;54973.53;2024669;29;20048;-40
2022/07/29 03:13:23;;;;;;;12.55;9.48;;;;;;;-145.87;100.00;54973.53;2047293;29;20070;-40
2022/07/29 03:15:23;;;;;;;12.73;8.25;;;;;;;-145.87;100.00;54973.53;2031992;29;20040;-42
2022/07/29 03:17:22;;;;;;;13.52;9.40;;;;;;;-145.87;100.00;54973.53;2031582;29;20048;-37
2022/07/29 03:19:22;;;;;;;13.13;7.40;;;;;;;-145.87;100.00;54973.53;2039512;29;20051;-38
2022/07/29 03:21:22;;;;;;;10.15;7.30;;;;;;;-145.87;100.00;54973.53;2031539;29;20052;-36
2022/07/29 03:23:23;;;;;;;11.73;8.07;;;;;;;-145.87;100.00;54973.53;2031345;29;20055;-38
2022/07/29 03:25:26;;;;;;;11.57;8.23;;;;;;;-145.87;100.00;54973.53;2024422;29;20052;-38
2022/07/29 03:27:26;;;;;;;14.10;8.73;;;;;;;-145.87;100.00;54973.53;2048857;29;20051;-40
2022/07/29 03:29:26;;;;;;;12.23;8.60;;;;;;;-145.87;100.00;54973.53;2032355;29;20052;-40
2022/07/29 03:31:26;;;;;;;15.10;9.18;;;;;;;-145.87;100.00;54973.53;2031374;29;20506;-39
2022/07/29 03:33:28;;;;;;;16.83;9.82;;;;;;;-145.87;100.00;54973.53;2047432;29;20039;-40
2022/07/29 03:35:29;;;;;;;15.50;9.48;;;;;;;-145.87;100.00;54973.53;2040794;29;20446;-41
2022/07/29 03:37:30;;;;;;;13.23;9.20;;;;;;;-145.87;100.00;54973.53;2041937;29;20437;-41
2022/07/29 03:39:31;;;;;;;14.60;9.15;;;;;;;-145.87;100.00;54973.53;2033722;29;20557;-39
2022/07/29 03:41:36;;;;;;;13.43;8.60;;;;;;;-145.87;100.00;54973.53;2049937;29;20062;-41
2022/07/29 03:43:37;;;;;;;11.60;9.07;;;;;;;-145.87;100.00;54973.53;2041621;29;20132;-42
2022/07/29 03:45:37;;;;;;;12.75;9.55;;;;;;;-145.87;100.00;54973.53;2026042;29;20053;-41
2022/07/29 03:47:38;;;;;;;11.40;9.13;;;;;;;-145.87;100.00;54973.53;2041142;29;20046;-39
2022/07/29 03:49:38;;;;;;;12.70;9.73;;;;;;;-145.87;100.00;54973.53;2041861;29;20055;-40
2022/07/29 03:51:38;;;;;;;13.90;9.52;;;;;;;-145.87;100.00;54973.53;2033532;29;20073;-40
2022/07/29 03:53:38;;;;;;;19.73;12.00;;;;;;;-145.87;100.00;54973.53;2033062;29;20047;-39
2022/07/29 03:55:41;;;;;;;11.98;9.68;;;;;;;-145.87;100.00;54973.53;2033925;29;20044;-40
2022/07/29 03:57:42;;;;;;;15.18;9.75;;;;;;;-145.87;100.00;54973.53;2042455;29;20074;-41
2022/07/29 03:59:42;;;;;;;11.00;8.02;;;;;;;-145.87;100.00;54973.53;2034154;29;20537;-38
2022/07/29 04:01:42;;;;;;;11.77;7.78;;;;;;;-145.87;100.00;54973.53;2033441;29;20056;-41
2022/07/29 04:03:42;;;;;;;9.18;7.10;;;;;;;-145.87;100.00;54973.53;2025667;29;20080;-41
2022/07/29 04:05:41;;;;;;;9.48;7.30;;;;;;;-145.87;100.00;54973.53;2042024;28;20247;-40
2022/07/29 04:07:43;;;;;;;10.68;7.70;;;;;;;-145.87;100.00;54973.53;2033940;29;20070;-42
2022/07/29 04:09:43;;;;;;;8.75;6.15;;;;;;;-145.87;100.00;54973.53;2041396;29;20145;-41
2022/07/29 04:11:43;;;;;;;7.93;7.05;;;;;;;-145.87;100.00;54973.53;2033882;29;20044;-41
2022/07/29 04:13:43;;;;;;;12.02;7.70;;;;;;;-145.87;100.00;54973.53;2041380;29;20521;-40
2022/07/29 04:15:42;;;;;;;8.73;6.13;;;;;;;-145.87;100.00;54973.53;2041654;29;20552;-38
2022/07/29 04:17:42;;;;;;;13.05;6.43;;;;;;;-145.87;100.00;54973.53;2026786;29;20056;-39
2022/07/29 04:19:42;;;;;;;9.65;7.30;;;;;;;-145.87;100.00;54973.53;2041769;29;20066;-39
2022/07/29 04:21:42;;;;;;;9.27;7.35;;;;;;;-145.87;100.00;54973.53;2025845;29;20048;-39
2022/07/29 04:23:44;;;;;;;12.95;7.65;;;;;;;-145.87;100.00;54973.53;2042265;29;20059;-41
2022/07/29 04:25:44;;;;;;;8.90;6.70;;;;;;;-145.87;100.00;54973.53;2033925;29;20051;-40
2022/07/29 04:28:02;;;;;;;10.95;7.47;;;;;;;-145.87;100.00;54973.53;2033843;29;20079;-38
2022/07/29 04:30:02;;;;;;;12.90;7.65;;;;;;;-145.87;100.00;54973.53;2033856;29;20060;-42
2022/07/29 04:32:02;;;;;;;11.02;7.53;;;;;;;-145.87;100.00;54973.53;2041473;29;20048;-39
2022/07/29 04:34:02;;;;;;;9.23;6.10;;;;;;;-145.87;100.00;54973.53;2025467;29;20421;-40
2022/07/29 04:36:02;;;;;;;11.63;7.05;;;;;;;-145.87;100.00;54973.53;2040784;29;20048;-40
2022/07/29 04:38:02;;;;;;;8.45;6.13;;;;;;;-145.87;100.00;54973.53;2041074;29;20051;-39
2022/07/29 04:40:02;;;;;;;8.15;5.22;;;;;;;-145.87;100.00;54973.53;2041576;29;20051;-39
2022/07/29 04:42:02;;;;;;;6.68;5.15;;;;;;;-145.87;100.00;54973.53;2033538;29;20052;-40
2022/07/29 04:44:04;;;;;;;10.55;7.32;;;;;;;-145.87;100.00;54973.53;2048824;29;20051;-39
2022/07/29 04:46:05;;;;;;;10.40;6.47;;;;;;;-145.87;100.00;54973.53;2041547;29;20059;-39
2022/07/29 04:48:06;;;;;;;8.52;5.75;;;;;;;-145.87;100.00;54973.53;2026208;29;20101;-41
2022/07/29 04:50:06;;;;;;;8.98;5.63;;;;;;;-145.87;100.00;54973.53;2040857;29;20500;-41
2022/07/29 04:52:06;;;;;;;8.98;5.00;;;;;;;-145.87;100.00;54973.53;2032980;29;20052;-40
2022/07/29 04:54:06;;;;;;;11.15;6.95;;;;;;;-145.87;100.00;54973.53;2041183;29;20052;-39
2022/07/29 04:56:06;;;;;;;12.20;6.78;;;;;;;-145.87;100.00;54973.53;2049383;29;20047;-40
2022/07/29 04:58:07;;;;;;;10.27;7.07;;;;;;;-145.87;100.00;54973.53;2041399;29;20053;-41
2022/07/29 05:00:07;;;;;;;10.32;6.47;;;;;;;-145.87;100.00;54973.53;2041466;29;20047;-39
2022/07/29 05:02:07;;;;;;;9.45;5.65;;;;;;;-145.87;100.00;54973.53;2048868;29;20047;-40
2022/07/29 05:04:07;;;;;;;10.60;6.75;;;;;;;-145.87;100.00;54973.53;2048659;28;20525;-41
2022/07/29 05:06:07;;;;;;;7.82;6.13;;;;;;;-145.87;100.00;54973.53;2049626;29;20058;-40
2022/07/29 05:08:07;;;;;;;8.55;6.05;;;;;;;-145.87;100.00;54973.53;2048457;29;20555;-41
2022/07/29 05:10:06;;;;;;;9.90;6.80;;;;;;;-145.87;100.00;54973.53;2065260;22;20058;-46
2022/07/29 05:12:06;;;;;;;12.05;6.53;;;;;;;-145.87;100.00;54973.53;2065011;28;20504;-46
2022/07/29 05:14:06;;;;;;;9.35;6.00;;;;;;;-145.87;100.00;54973.53;2064011;28;20042;-44
2022/07/29 05:16:07;;;;;;;13.05;5.60;;;;;;;-145.87;100.00;54973.53;2064973;28;20046;-41
2022/07/29 05:18:07;;;;;;;7.30;5.32;;;;;;;-145.87;100.00;54973.53;2056141;28;20047;-43
2022/07/29 05:20:07;;;;;;;9.63;5.05;;;;;;;-145.87;100.00;54973.53;2064173;28;20049;-44
2022/07/29 05:22:06;;;;;;;8.35;5.45;;;;;;;-145.87;100.00;54973.53;2064359;28;20050;-44
2022/07/29 05:24:06;;;;;;;8.70;5.57;;;;;;;-145.87;100.00;54973.53;2048215;29;20525;-41
2022/07/29 05:26:06;;;;;;;15.32;6.10;;;;;;;-145.87;100.00;54973.53;2064318;28;20054;-41
2022/07/29 05:28:05;;;;;;;11.60;5.80;;;;;;;-145.87;100.00;54973.53;2056276;28;20039;-43
2022/07/29 05:30:05;;;;;;;9.48;5.57;;;;;;;-145.87;100.00;54973.53;2065887;28;20392;-39
2022/07/29 05:32:05;;;;;;;7.10;4.80;;;;;;;-145.87;100.00;54973.53;2065056;28;20083;-41
2022/07/29 05:34:05;;;;;;;8.27;4.53;;;;;;;-145.87;100.00;54973.53;2064698;28;20492;-44
2022/07/29 05:36:06;;;;;;;8.65;4.43;;;;;;;-145.87;100.00;54973.53;2056374;28;20049;-41
2022/07/29 05:38:06;;;;;;;7.90;4.60;;;;;;;-145.87;100.00;54973.53;2040455;29;20043;-40
2022/07/29 05:40:06;;;;;;;7.40;4.45;;;;;;;-145.87;100.00;54973.53;2064990;28;20488;-42
2022/07/29 05:42:09;;;;;;;9.32;4.47;;;;;;;-145.87;100.00;54973.53;2065444;28;20045;-43
2022/07/29 05:44:09;;;;;;;10.88;4.22;;;;;;;-145.87;100.00;54973.53;2064717;28;20054;-42
2022/07/29 05:46:09;;;;;;;9.25;4.53;;;;;;;-145.87;100.00;54973.53;2064234;28;20046;-43
2022/07/29 05:48:09;;;;;;;8.00;4.93;;;;;;;-145.87;100.00;54973.53;2064626;28;20038;-43
2022/07/29 05:50:08;;;;;;;8.10;4.22;;;;;;;-145.87;100.00;54973.53;2064021;28;20046;-45
2022/07/29 05:52:08;;;;;;;8.75;4.60;;;;;;;-145.87;100.00;54973.53;2066415;28;20057;-45
2022/07/29 05:54:08;;;;;;;8.52;5.35;;;;;;;-145.87;100.00;54973.53;2072252;28;20538;-43
2022/07/29 05:56:08;;;;;;;8.05;4.55;;;;;;;-145.87;100.00;54973.53;2071777;28;20049;-45
2022/07/29 05:58:15;;;;;;;6.00;4.75;;;;;;;-145.87;100.00;54973.53;2063654;28;20412;-43
2022/07/29 06:00:15;;;;;;;14.87;4.57;;;;;;;-145.87;100.00;54973.53;2072318;28;20065;-44
2022/07/29 06:02:15;;;;;;;6.05;4.13;;;;;;;-145.87;100.00;54973.53;2073510;28;20452;-44
2022/07/29 06:04:15;;;;;;;8.80;4.22;;;;;;;-145.87;100.00;54973.53;2074105;28;20530;-43
2022/07/29 06:06:15;;;;;;;8.38;4.00;;;;;;;-145.87;100.00;54973.53;2072578;28;20442;-43
2022/07/29 06:08:14;;;;;;;6.72;4.40;;;;;;;-145.87;100.00;54973.53;2064150;28;20054;-40
2022/07/29 06:10:14;;;;;;;5.93;3.95;;;;;;;-145.87;100.00;54973.53;2071442;28;20046;-44
2022/07/29 06:12:14;;;;;;;6.65;4.45;;;;;;;-145.87;100.00;54973.53;2064298;28;20042;-44
2022/07/29 06:14:13;;;;;;;5.85;4.35;;;;;;;-145.87;100.00;54973.53;2064141;28;20042;-44
2022/07/29 06:16:13;;;;;;;9.75;5.10;;;;;;;-145.87;100.00;54973.53;2064457;28;20046;-43
2022/07/29 06:18:14;;;;;;;8.35;4.90;;;;;;;-145.87;100.00;54973.53;2071639;28;20550;-45
2022/07/29 06:20:14;;;;;;;9.18;4.85;;;;;;;-145.87;100.00;54973.53;2072872;28;20050;-42
2022/07/29 06:22:15;;;;;;;10.63;5.07;;;;;;;-145.87;100.00;54973.53;2073343;28;20053;-43
2022/07/29 06:24:15;;;;;;;11.15;5.28;;;;;;;-145.87;100.00;54973.53;2072298;28;20065;-42
2022/07/29 06:26:16;;;;;;;6.55;4.55;;;;;;;-145.87;100.00;54973.53;2064447;28;20424;-41
2022/07/29 06:28:16;;;;;;;7.43;4.53;;;;;;;-145.87;100.00;54973.53;2072154;28;20042;-43
2022/07/29 06:30:15;;;;;;;9.18;4.63;;;;;;;-145.87;100.00;54973.53;2071856;28;20061;-46
2022/07/29 06:32:15;;;;;;;9.00;4.80;;;;;;;-145.87;100.00;54973.53;2063433;28;20076;-44
2022/07/29 06:34:16;;;;;;;9.23;5.43;;;;;;;-145.87;100.00;54973.53;2064129;28;20053;-42
2022/07/29 06:36:15;;;;;;;10.57;5.40;;;;;;;-145.87;100.00;54973.53;2064040;28;20050;-41
2022/07/29 06:38:15;;;;;;;8.02;5.15;;;;;;;-145.87;100.00;54973.53;2072832;28;20479;-40
2022/07/29 06:42:34;;;;;;;8.25;5.25;;;;;;;-145.87;100.00;54973.53;2072295;28;20053;-41
2022/07/29 06:44:35;;;;;;;8.38;4.82;;;;;;;-145.87;100.00;54973.53;2071536;28;20046;-45
2022/07/29 06:46:34;;;;;;;13.02;5.03;;;;;;;-145.87;100.00;54973.53;2071634;28;20045;-45
2022/07/29 06:48:35;;;;;;;6.68;4.82;;;;;;;-145.87;100.00;54973.53;2071385;28;20046;-42
2022/07/29 06:50:35;;;;;;;6.93;4.38;;;;;;;-145.87;100.00;54973.53;2063437;28;20050;-42
2022/07/29 06:52:36;;;;;;;11.40;4.13;;;;;;;-145.87;100.00;54973.53;2055466;28;20047;-43
2022/07/29 06:54:36;;;;;;;5.93;3.63;;;;;;;-145.87;100.00;54973.53;2047500;29;20051;-40
2022/07/29 06:56:37;;;;;;;6.55;3.70;;;;;;;-145.87;100.00;54973.53;2055460;28;20054;-40
2022/07/29 06:58:37;;;;;;;5.40;3.58;;;;;;;-145.87;100.00;54973.53;2064869;28;20053;-44
2022/07/29 07:00:36;;;;;;;7.10;3.17;;;;;;;-145.87;100.00;54973.53;2064485;28;20050;-42
2022/07/29 07:02:37;;;;;;;4.60;2.88;;;;;;;-145.87;100.00;54973.53;2072217;28;20420;-40
2022/07/29 07:04:37;;;;;;;10.23;2.92;;;;;;;-145.87;100.00;54973.53;2056296;28;20050;-41
2022/07/29 07:06:36;;;;;;;6.03;2.40;;;;;;;-145.87;100.00;54973.53;2063225;28;20050;-41
2022/07/29 07:08:36;;;;;;;6.07;2.65;;;;;;;-145.87;100.00;54973.53;2063815;28;20046;-41
2022/07/29 07:10:36;;;;;;;7.60;2.40;;;;;;;-145.87;100.00;54973.53;2064944;28;20054;-43
2022/07/29 07:12:36;;;;;;;3.63;2.15;;;;;;;-145.87;100.00;54973.53;2064065;28;20054;-44
2022/07/29 07:14:35;;;;;;;3.88;2.03;;;;;;;-145.87;100.00;54973.53;2064404;28;20453;-45
2022/07/29 07:16:35;;;;;;;4.47;2.17;;;;;;;-145.87;100.00;54973.53;2071435;28;20046;-44
2022/07/29 07:17:52;;;;;;;4.20;2.40;;;;;;;19.85;75.41;96038.22;2071645;28;20042;-44
2022/07/29 07:18:53;;;;;;;4.00;2.50;;;;;;;19.50;70.84;96037.50;2070560;28;20053;-46
2022/07/29 07:19:54;;;;;;;5.30;2.38;;;;;;;19.32;70.91;96039.00;2063903;28;20511;-41
2022/07/29 07:20:56;;;;;;;4.13;2.20;;;;;;;19.29;71.11;96039.25;2056021;28;20055;-42
2022/07/29 07:21:57;;;;;;;4.40;2.42;;;;;;;19.30;71.59;96044.41;2056190;28;20061;-44
2022/07/29 07:22:59;;;;;;;3.50;2.20;;;;;;;19.42;69.78;96044.38;2048188;28;20058;-43
2022/07/29 07:24:00;;;;;;;4.18;1.85;;;;;;;19.42;70.16;96047.84;2048496;28;20099;-45
2022/07/29 07:25:01;;;;;;;7.00;2.40;;;;;;;19.54;70.90;96044.19;2048347;28;20058;-41
2022/07/29 07:26:04;;;;;;;5.82;2.30;;;;;;;19.66;70.31;96042.38;2047780;28;20055;-41
2022/07/29 07:27:06;;;;;;;5.57;2.33;;;;;;;19.45;70.34;96044.94;2063466;28;20054;-43
2022/07/29 07:28:07;;;;;;;4.50;2.33;;;;;;;19.74;69.53;96039.94;2055785;28;20055;-42
2022/07/29 07:29:08;;;;;;;3.55;2.22;;;;;;;19.59;71.12;96042.03;2047924;28;20070;-41
2022/07/29 07:30:10;;;;;;;3.10;2.05;;;;;;;19.74;70.37;96042.56;2063463;28;20629;-40
2022/07/29 07:31:11;;;;;;;5.30;2.38;;;;;;;19.85;71.56;96041.69;2064649;28;20069;-42
2022/07/29 07:32:13;;;;;;;4.25;1.95;;;;;;;20.11;70.90;96046.56;2063587;28;20046;-41
2022/07/29 07:33:14;;;;;;;4.75;2.38;;;;;;;19.92;73.41;96047.28;2055670;28;20054;-44
2022/07/29 07:34:15;;;;;;;5.18;2.50;;;;;;;19.77;71.77;96037.03;2056294;28;20058;-41
2022/07/29 07:35:17;;;;;;;4.68;2.40;;;;;;;19.77;73.46;96030.94;2056146;28;20038;-41
2022/07/29 07:36:18;;;;;;;5.03;2.40;;;;;;;19.87;73.13;96034.47;2063761;28;20050;-41
2022/07/29 07:37:20;;;;;;;4.38;2.00;;;;;;;19.65;71.70;96031.94;2071783;28;20428;-42
2022/07/29 07:38:21;;;;;;;3.15;2.47;;;;;;;19.54;70.37;96031.03;2063407;28;20436;-41
2022/07/29 07:39:23;;;;;;;3.63;2.20;;;;;;;19.65;70.38;96024.88;2063543;28;20046;-43
2022/07/29 07:40:24;;;;;;;4.68;2.30;;;;;;;19.87;70.65;96034.47;2072198;28;20053;-41
2022/07/29 07:41:25;;;;;;;4.40;2.13;;;;;;;20.30;68.99;96022.94;2064051;28;20050;-43
2022/07/29 07:42:27;;;;;;;5.78;2.60;;;;;;;20.28;69.64;96033.59;2067125;28;20083;-44
2022/07/29 07:43:28;;;;;;;3.60;2.33;;;;;;;20.21;69.59;96034.28;2070221;28;20046;-46
2022/07/29 07:44:29;;;;;;;4.88;2.13;;;;;;;20.00;68.31;96036.94;2054496;23;20033;-42
2022/07/29 07:45:32;;;;;;;3.15;2.10;;;;;;;20.06;69.10;96039.03;2039497;28;20071;-45
2022/07/29 07:46:33;;;;;;;5.30;2.33;;;;;;;20.09;70.74;96041.41;2056055;28;20057;-42
2022/07/29 07:47:37;;;;;;;4.88;2.60;;;;;;;20.29;69.17;96034.47;2046627;28;20509;-43
2022/07/29 07:48:38;;;;;;;3.58;2.30;;;;;;;20.32;69.34;96030.72;2042097;29;20575;-43
2022/07/29 07:49:39;;;;;;;2.65;2.08;;;;;;;20.67;68.02;96039.09;2041324;28;20066;-40
2022/07/29 07:50:40;;;;;;;3.75;2.30;;;;;;;20.72;67.41;96033.41;2046768;28;20059;-42
2022/07/29 07:51:42;;;;;;;3.78;2.28;;;;;;;20.67;67.74;96027.69;2029508;29;20047;-42
2022/07/29 07:52:51;;;;;;;3.47;2.13;;;;;;;20.58;67.65;96039.91;2044905;28;20053;-45
2022/07/29 07:53:53;;;;;;;4.97;2.25;;;;;;;20.62;66.49;96033.38;2037661;28;20104;-46
2022/07/29 07:54:54;;;;;;;5.43;2.20;;;;;;;20.54;66.78;96032.38;2030342;28;20047;-43
2022/07/29 07:55:55;;;;;;;4.97;2.13;;;;;;;20.97;67.24;96036.53;2018582;28;20535;-47
2022/07/29 07:56:56;;;;;;;4.85;2.20;;;;;;;20.96;65.56;96029.59;2032108;28;20039;-43
2022/07/29 07:57:58;;;;;;;5.03;2.20;;;;;;;21.04;66.59;96029.75;2034483;28;20122;-43
2022/07/29 07:58:59;;;;;;;3.00;2.15;;;;;;;21.09;66.96;96030.16;2053506;28;20049;-42
2022/07/29 08:00:01;;;;;;;5.05;2.42;;;;;;;20.81;64.99;96029.97;2051596;28;20043;-41
2022/07/29 08:01:02;;;;;;;4.85;2.10;;;;;;;21.01;65.89;96035.28;2040299;28;20039;-46
2022/07/29 08:02:03;;;;;;;4.28;2.42;;;;;;;20.58;68.02;96044.31;2039095;29;20066;-41
2022/07/29 08:03:05;;;;;;;4.18;2.33;;;;;;;20.79;68.56;96034.53;2043229;28;20055;-45
2022/07/29 08:04:07;;;;;;;4.90;2.50;;;;;;;20.32;67.36;96020.19;2044122;29;20043;-42
2022/07/29 08:05:09;;;;;;;6.95;2.50;;;;;;;20.60;68.23;96040.56;2047845;29;20062;-40
2022/07/29 08:06:10;;;;;;;3.03;1.88;;;;;;;20.98;66.30;96030.28;2044571;28;20476;-40
2022/07/29 08:07:11;;;;;;;5.35;2.15;;;;;;;21.31;65.39;96034.38;2040855;29;20064;-43
2022/07/29 08:08:13;;;;;;;5.85;2.60;;;;;;;21.01;65.22;96030.00;2046693;28;20047;-43
2022/07/29 08:09:14;;;;;;;4.80;2.60;;;;;;;21.30;64.79;96030.91;2038244;29;20047;-43
2022/07/29 08:10:51;;;;;;;4.70;2.55;;;;;;;20.61;66.76;96042.28;2039642;29;20062;-44
2022/07/29 08:11:37;;;;;;;3.35;2.63;;;;;;;20.42;70.58;96043.00;2054716;28;20058;-43
2022/07/29 08:12:39;;;;;;;3.53;2.38;;;;;;;20.40;70.29;96037.00;2036236;28;20050;-43
2022/07/29 08:13:40;;;;;;;2.78;2.28;;;;;;;20.28;69.05;96038.88;2022624;28;20062;-41
2022/07/29 08:14:41;;;;;;;4.40;2.05;;;;;;;20.78;67.44;96030.22;2055011;28;20083;-45
2022/07/29 08:15:44;;;;;;;4.93;2.40;;;;;;;20.64;68.82;96034.09;2047540;28;20055;-41
2022/07/29 08:16:45;;;;;;;4.45;2.40;;;;;;;20.83;68.86;96028.03;2043927;28;20051;-44
2022/07/29 08:17:47;;;;;;;3.55;2.22;;;;;;;20.78;68.21;96037.31;2046317;28;20043;-42
2022/07/29 08:18:48;;;;;;;2.72;2.30;;;;;;;20.91;66.80;96032.63;2039581;29;20051;-42